首页
METAR-TAF:

METAR-TAF

机场 :

Repulse Bay, 努那武特, 加拿大

纬度: 66-32N, 经度: 086-15W, 海拔: 24米

当前天气观测

该预报发布于2小时和14分钟前的22:00 UTC
风速10节,风向
温度 13°C
湿度 62%
气压 1007 hPa
能見度: 24.1公里
多云层高于3100英尺
多云层高于20000英尺

METAR: CYUT 152200Z 17010KT 15SM BKN031 BKN200 13/06 A2974 RMK SC6CI1 LAST STFD OBS, NXT 161200 SLP075

时间: 19:14 (00:14 UTC)

预报

该预报发布于5小时和34分钟前的18:40 UTC
预报有效从15日的 19点(UTC)到 15日的 22点(UTC)
风速12节,风向东南
能見度: 10公里
少量云层高于3000英尺
多云层高于20000英尺

TAF: CYUT 151840Z 1519/1522 14012KT P6SM FEW030 BKN200 RMK NXT FCST BY 161400Z

超过4000个机场的气象观测和天气预报(METAR&TAF报告)。

可查询的气象台以黄色和红色小点在地图上表示。

将鼠标移到小点上方,可查看气象台名称。

然后点击查看天气观测和预报。

如需切换地图:点击带黑十字的绿色按钮放大地图;点击带横线的绿色按钮缩小地图;或者点击绿色箭头查看邻近地区的地图。


METAR-TAF: